Time;durP1;ratioP1;P1;durP2;ratioP2;P2;SDS_P1;SDS_P2;PMS_P1;PMS_P2;Temp;Humidity;BMP_temperature;BMP_pressure;BME280_temperature;BME280_humidity;BME280_pressure;Samples;Min_cycle;Max_cycle;Signal;HPM_P1;HPM_P2
2024/02/10 00:00:16;;;;;;;26.60;14.77;;;;;;;13.30;88.03;98727.56;4944404;28;98828;-68
2024/02/10 00:02:43;;;;;;;23.95;14.57;;;;;;;13.30;88.00;98722.28;4944775;28;97526;-68
2024/02/10 00:05:11;;;;;;;26.33;13.70;;;;;;;13.33;88.27;98719.38;4947234;28;96842;-69
2024/02/10 00:07:37;;;;;;;23.35;13.80;;;;;;;13.01;88.45;98725.34;4953219;28;97947;-67
2024/02/10 00:10:05;;;;;;;27.58;14.85;;;;;;;12.98;88.99;98719.44;4949859;28;98813;-68
2024/02/10 00:12:31;;;;;;;25.75;14.20;;;;;;;13.28;88.02;98717.09;4943374;28;99907;-68
2024/02/10 00:14:58;;;;;;;26.90;14.45;;;;;;;13.43;87.49;98723.84;4948895;28;96770;-69
2024/02/10 00:17:26;;;;;;;32.08;14.18;;;;;;;13.19;87.45;98723.13;4948539;28;99067;-68
2024/02/10 00:19:55;;;;;;;28.27;13.90;;;;;;;13.05;88.46;98729.47;4947083;28;99078;-68
2024/02/10 00:22:22;;;;;;;24.63;13.68;;;;;;;13.37;87.64;98724.31;4953120;28;96835;-68
2024/02/10 00:24:49;;;;;;;24.98;13.00;;;;;;;13.32;86.76;98728.31;4945609;28;96818;-68
2024/02/10 00:27:16;;;;;;;23.60;12.70;;;;;;;12.97;89.40;98731.84;4948359;28;98920;-68
2024/02/10 00:29:43;;;;;;;19.63;11.65;;;;;;;13.06;89.52;98727.66;4945309;28;100222;-68
2024/02/10 00:32:10;;;;;;;22.67;12.27;;;;;;;13.24;88.86;98736.00;4946376;28;96837;-70
2024/02/10 00:34:39;;;;;;;25.23;12.57;;;;;;;13.37;88.42;98726.13;4947937;28;96772;-69
2024/02/10 00:37:06;;;;;;;19.98;12.40;;;;;;;13.42;88.70;98729.25;4950759;28;97814;-69
2024/02/10 00:39:33;;;;;;;22.48;12.38;;;;;;;13.45;87.82;98734.34;4945537;28;98076;-69
2024/02/10 00:42:00;;;;;;;18.45;10.82;;;;;;;13.46;87.91;98731.53;4947423;28;97247;-69
2024/02/10 00:44:28;;;;;;;23.45;11.32;;;;;;;13.58;88.01;98721.78;4945567;28;97050;-68
2024/02/10 00:46:55;;;;;;;18.80;10.82;;;;;;;13.58;87.74;98724.44;4945770;28;98975;-68
2024/02/10 00:49:24;;;;;;;23.13;11.40;;;;;;;13.47;87.87;98719.13;4943580;28;98505;-69
2024/02/10 00:51:50;;;;;;;17.33;11.38;;;;;;;13.11;88.75;98726.34;4947202;28;98963;-69
2024/02/10 00:54:22;;;;;;;20.20;11.93;;;;;;;13.28;88.45;98721.53;4944894;28;97234;-69
2024/02/10 00:56:49;;;;;;;19.10;11.27;;;;;;;13.47;87.87;98722.63;4944652;28;102090;-69
2024/02/10 00:59:17;;;;;;;24.75;12.45;;;;;;;13.50;87.46;98726.84;4942962;28;99322;-69
2024/02/10 01:01:43;;;;;;;28.67;12.48;;;;;;;13.42;87.37;98723.97;4949847;28;96931;-69
2024/02/10 01:04:12;;;;;;;24.33;12.90;;;;;;;13.61;87.64;98724.19;4950566;28;98163;-69
2024/02/10 01:06:40;;;;;;;22.33;13.63;;;;;;;13.60;87.33;98722.50;4952652;28;99046;-68
2024/02/10 01:09:07;;;;;;;20.90;12.27;;;;;;;13.45;87.76;98713.97;4949142;28;99060;-69
2024/02/10 01:11:34;;;;;;;24.63;13.52;;;;;;;13.39;87.18;98730.34;4947518;28;97581;-69
2024/02/10 01:14:03;;;;;;;23.45;12.48;;;;;;;13.50;86.93;98725.06;4947765;28;98585;-68
2024/02/10 01:16:32;;;;;;;21.17;12.38;;;;;;;13.50;87.09;98717.09;4948283;28;99467;-67
2024/02/10 01:18:58;;;;;;;21.13;12.88;;;;;;;13.29;87.10;98717.94;4945223;28;98220;-68
2024/02/10 01:21:25;;;;;;;23.42;13.10;;;;;;;13.66;86.45;98723.81;4952956;28;97225;-68
2024/02/10 01:23:51;;;;;;;25.95;14.20;;;;;;;13.34;87.10;98721.06;4948232;28;96875;-67
2024/02/10 01:26:18;;;;;;;26.30;13.07;;;;;;;13.31;87.55;98724.81;4946757;28;99569;-68
2024/02/10 01:28:45;;;;;;;22.45;12.65;;;;;;;13.39;87.40;98722.38;4950626;28;102251;-68
2024/02/10 01:31:15;;;;;;;25.58;13.43;;;;;;;13.22;87.91;98724.69;4944024;28;96810;-68
2024/02/10 01:33:42;;;;;;;22.50;13.10;;;;;;;13.56;87.03;98716.59;4947489;28;99098;-69
2024/02/10 01:36:09;;;;;;;23.15;13.60;;;;;;;13.48;86.94;98719.00;4946802;28;99182;-69
2024/02/10 01:38:41;;;;;;;23.52;12.90;;;;;;;13.24;87.46;98726.25;4946913;28;99369;-68
2024/02/10 01:41:09;;;;;;;21.50;12.50;;;;;;;13.12;87.80;98722.75;4943090;28;96787;-70
2024/02/10 01:43:38;;;;;;;25.33;12.85;;;;;;;13.18;87.59;98725.88;4945102;28;97118;-68
2024/02/10 01:46:05;;;;;;;26.95;12.75;;;;;;;13.23;87.40;98727.22;4945696;28;99240;-68
2024/02/10 01:48:35;;;;;;;20.52;11.18;;;;;;;13.28;88.19;98724.19;4945359;28;98818;-68
2024/02/10 01:51:02;;;;;;;21.27;10.88;;;;;;;13.50;86.89;98719.75;4947171;28;98705;-70
2024/02/10 01:53:29;;;;;;;19.40;10.57;;;;;;;13.31;88.71;98724.81;4941782;28;98342;-67
2024/02/10 01:55:56;;;;;;;19.48;11.05;;;;;;;13.47;88.30;98727.94;4946734;28;99528;-66
2024/02/10 01:58:23;;;;;;;21.60;11.35;;;;;;;13.21;88.82;98725.63;4944088;28;99286;-66
2024/02/10 02:00:49;;;;;;;20.63;10.60;;;;;;;13.56;88.25;98719.25;4943491;28;96861;-67
2024/02/10 02:03:16;;;;;;;19.88;10.95;;;;;;;13.56;88.52;98715.75;4939522;28;96924;-67
2024/02/10 02:05:45;;;;;;;16.35;9.45;;;;;;;13.40;88.46;98717.91;4944995;28;99411;-67
2024/02/10 02:08:11;;;;;;;17.52;10.07;;;;;;;13.51;88.17;98724.09;4947735;28;99255;-67
2024/02/10 02:10:38;;;;;;;20.02;10.07;;;;;;;13.43;88.97;98723.00;4946229;28;96901;-67
2024/02/10 02:13:05;;;;;;;19.50;9.73;;;;;;;13.25;90.02;98720.00;4949837;28;97163;-67
2024/02/10 02:15:31;;;;;;;17.00;9.65;;;;;;;13.33;89.63;98722.88;4942923;28;99336;-67
2024/02/10 02:17:58;;;;;;;20.10;9.85;;;;;;;13.46;88.67;98717.44;4949475;28;100236;-67
2024/02/10 02:20:24;;;;;;;14.75;9.73;;;;;;;13.51;88.17;98717.94;4944396;28;97743;-67
2024/02/10 02:22:53;;;;;;;19.10;9.35;;;;;;;13.51;88.30;98712.63;4951632;28;98301;-67
2024/02/10 02:25:20;;;;;;;18.65;9.93;;;;;;;13.62;87.88;98714.41;4948297;28;98337;-67
2024/02/10 02:27:47;;;;;;;22.00;11.35;;;;;;;13.15;89.07;98722.50;4945382;28;99402;-67
2024/02/10 02:30:14;;;;;;;19.52;9.48;;;;;;;13.61;88.35;98720.69;4949293;28;96884;-67
2024/02/10 02:32:40;;;;;;;18.50;10.20;;;;;;;13.39;88.74;98717.06;4945706;28;97384;-67
2024/02/10 02:35:09;;;;;;;14.45;9.38;;;;;;;13.58;87.77;98719.13;4947174;28;98966;-67
2024/02/10 02:37:37;;;;;;;16.58;9.35;;;;;;;13.46;89.09;98717.44;4947420;28;98806;-69
2024/02/10 02:40:06;;;;;;;16.48;9.70;;;;;;;13.40;89.45;98720.56;4947948;28;98966;-68
2024/02/10 02:42:32;;;;;;;16.63;9.00;;;;;;;13.31;89.27;98718.66;4946066;28;97347;-68
2024/02/10 02:45:00;;;;;;;14.85;8.68;;;;;;;13.69;88.52;98716.47;4947548;28;98898;-68
2024/02/10 02:47:26;;;;;;;18.63;9.30;;;;;;;13.67;88.57;98723.69;4948428;28;99079;-68
2024/02/10 02:49:54;;;;;;;20.48;8.80;;;;;;;13.65;87.88;98719.50;4948688;28;97227;-68
2024/02/10 02:52:20;;;;;;;17.20;8.38;;;;;;;13.52;89.24;98719.63;4946381;28;97482;-69
2024/02/10 02:54:47;;;;;;;19.65;8.90;;;;;;;13.53;89.00;98713.31;4949268;28;99094;-68
2024/02/10 02:57:18;;;;;;;17.58;7.80;;;;;;;13.62;88.58;98719.72;4947813;28;98824;-68
2024/02/10 02:59:45;;;;;;;16.40;8.68;;;;;;;13.58;89.15;98716.47;4946987;28;97112;-68
2024/02/10 03:02:12;;;;;;;14.85;8.43;;;;;;;13.62;88.78;98719.72;4951035;28;97289;-68
2024/02/10 03:04:42;;;;;;;15.00;8.10;;;;;;;13.77;88.43;98711.38;4947463;28;99120;-68
2024/02/10 03:07:09;;;;;;;17.17;8.20;;;;;;;13.67;89.03;98713.06;4947262;28;98831;-68
2024/02/10 03:09:34;;;;;;;17.15;8.48;;;;;;;13.76;89.11;98715.00;4947528;28;97678;-68
2024/02/10 03:12:01;;;;;;;;;;;;;;;13.71;89.61;98713.69;4949889;28;97058;-68
2024/02/10 03:14:28;;;;;;;15.90;7.90;;;;;;;13.73;88.85;98707.28;4950905;28;99077;-68
2024/02/10 03:16:57;;;;;;;15.27;7.63;;;;;;;13.44;90.29;98716.72;4951868;28;99345;-68
2024/02/10 03:19:24;;;;;;;13.57;8.13;;;;;;;13.69;89.60;98705.84;4946399;28;97789;-68
2024/02/10 03:21:50;;;;;;;15.52;7.32;;;;;;;13.44;90.36;98716.72;4953709;28;96956;-69
2024/02/10 03:24:16;;;;;;;17.25;8.35;;;;;;;13.61;90.19;98708.25;4949765;28;98352;-69
2024/02/10 03:26:43;;;;;;;14.95;7.18;;;;;;;13.62;89.94;98709.09;4949610;28;98760;-68
2024/02/10 03:29:10;;;;;;;12.82;7.07;;;;;;;13.76;89.12;98712.34;4951065;28;98446;-68
2024/02/10 03:31:37;;;;;;;11.60;6.75;;;;;;;13.62;89.92;98712.59;4952267;28;96910;-68
2024/02/10 03:34:03;;;;;;;13.30;7.68;;;;;;;13.49;90.62;98710.09;4948655;28;102582;-68
2024/02/10 03:36:30;;;;;;;11.52;7.03;;;;;;;13.75;89.57;98709.81;4946468;28;99254;-68
2024/02/10 03:39:01;;;;;;;14.60;8.15;;;;;;;13.59;90.29;98710.19;4946833;28;97402;-68
2024/02/10 03:41:27;;;;;;;16.25;7.50;;;;;;;13.58;90.18;98711.19;4948126;28;96831;-68
2024/02/10 03:43:54;;;;;;;13.40;7.40;;;;;;;13.72;89.66;98708.22;4944326;28;99147;-67
2024/02/10 03:46:21;;;;;;;12.30;7.07;;;;;;;13.65;89.58;98709.72;4939387;28;98908;-67
2024/02/10 03:48:50;;;;;;;14.07;7.15;;;;;;;13.65;89.93;98715.03;4947797;28;98608;-67
2024/02/10 03:51:16;;;;;;;14.57;7.28;;;;;;;13.64;90.16;98713.34;4938197;28;97589;-67
2024/02/10 03:53:42;;;;;;;14.25;6.90;;;;;;;13.70;89.80;98710.19;4946048;28;99194;-67
2024/02/10 03:56:10;;;;;;;13.23;6.75;;;;;;;13.74;89.99;98708.13;4948643;28;98916;-68
2024/02/10 03:58:41;;;;;;;16.15;7.18;;;;;;;13.68;90.37;98701.50;4948090;28;97535;-68
2024/02/10 04:01:10;;;;;;;11.27;7.45;;;;;;;13.72;90.46;98708.22;4943979;28;101762;-68
2024/02/10 04:03:37;;;;;;;11.63;6.07;;;;;;;13.60;91.39;98706.56;4949063;28;99525;-67
2024/02/10 04:06:06;;;;;;;9.93;6.25;;;;;;;13.66;90.67;98711.38;4944053;28;97645;-67
2024/02/10 04:08:34;;;;;;;13.05;6.97;;;;;;;13.74;90.13;98703.66;4947027;28;96768;-68
2024/02/10 04:11:06;;;;;;;18.38;6.97;;;;;;;13.62;90.64;98702.00;4949038;28;98231;-68
2024/02/10 04:13:32;;;;;;;11.00;6.70;;;;;;;13.79;90.28;98709.44;4950741;28;99135;-68
2024/02/10 04:15:59;;;;;;;11.90;6.55;;;;;;;13.65;90.72;98709.72;4947287;28;99009;-69
2024/02/10 04:18:27;;;;;;;14.38;7.07;;;;;;;14.05;89.72;98706.47;4939454;28;98320;-69
2024/02/10 04:20:54;;;;;;;15.25;6.70;;;;;;;13.93;90.03;98697.69;4947650;28;97724;-69
2024/02/10 04:23:23;;;;;;;11.98;6.65;;;;;;;13.83;90.10;98694.97;4945162;28;98886;-68
2024/02/10 04:25:49;;;;;;;17.10;7.97;;;;;;;14.03;89.65;98692.50;4947215;28;98740;-68
2024/02/10 04:28:16;;;;;;;14.18;6.95;;;;;;;13.86;89.94;98700.00;4948164;28;97433;-68
2024/02/10 04:30:43;;;;;;;12.10;6.93;;;;;;;14.00;89.91;98698.03;4946997;28;97856;-68
2024/02/10 04:33:09;;;;;;;9.68;5.80;;;;;;;13.99;90.23;98691.88;4949784;28;99728;-69
2024/02/10 04:35:36;;;;;;;11.27;6.70;;;;;;;13.86;90.33;98692.03;4946360;28;99017;-68
2024/02/10 04:38:02;;;;;;;15.35;6.90;;;;;;;13.90;90.31;98688.19;4944412;28;97424;-68
2024/02/10 04:40:30;;;;;;;9.98;5.75;;;;;;;14.06;89.75;98681.59;4945383;28;96818;-68
2024/02/10 04:42:56;;;;;;;11.80;6.13;;;;;;;13.95;90.25;98685.16;4948167;28;99769;-67
2024/02/10 04:45:24;;;;;;;10.13;5.68;;;;;;;13.98;90.05;98685.72;4943358;28;98867;-68
2024/02/10 04:47:51;;;;;;;10.27;6.25;;;;;;;14.10;89.82;98683.91;4947397;28;97773;-67
2024/02/10 04:50:18;;;;;;;8.52;5.85;;;;;;;13.91;90.15;98681.06;4947351;28;98392;-68
2024/02/10 04:52:44;;;;;;;12.52;5.85;;;;;;;14.15;90.00;98683.50;4944183;28;99676;-67
2024/02/10 04:55:13;;;;;;;11.60;5.50;;;;;;;13.99;90.40;98675.94;4941105;28;101176;-67
2024/02/10 04:57:41;;;;;;;13.35;5.65;;;;;;;14.02;90.46;98680.19;4946815;28;96996;-68
2024/02/10 05:00:12;;;;;;;8.77;5.55;;;;;;;14.14;90.21;98684.47;4945302;28;97881;-68
2024/02/10 05:02:39;;;;;;;12.25;5.95;;;;;;;13.90;90.30;98677.56;4947828;28;98871;-68
2024/02/10 05:05:05;;;;;;;7.88;5.30;;;;;;;14.10;90.22;98675.94;4951247;28;99211;-68
2024/02/10 05:07:32;;;;;;;8.98;5.53;;;;;;;13.94;91.12;98679.00;4948335;28;98574;-68
2024/02/10 05:10:00;;;;;;;9.13;6.00;;;;;;;13.98;91.27;98676.91;4948085;28;96927;-69
2024/02/10 05:12:27;;;;;;;11.73;6.30;;;;;;;13.98;90.02;98684.06;4950296;28;98967;-69
2024/02/10 05:14:55;;;;;;;7.68;5.53;;;;;;;13.98;90.86;98680.41;4946580;28;98207;-69
2024/02/10 05:17:21;;;;;;;11.60;5.57;;;;;;;14.01;90.79;98679.34;4947074;28;96790;-68
2024/02/10 05:19:48;;;;;;;10.13;6.43;;;;;;;13.89;91.28;98675.03;4948171;28;97231;-69
2024/02/10 05:22:17;;;;;;;8.77;5.80;;;;;;;13.72;92.07;98680.88;4947491;28;99338;-68
2024/02/10 05:24:43;;;;;;;9.93;5.97;;;;;;;14.18;90.91;98677.94;4946689;28;98855;-69
2024/02/10 05:27:09;;;;;;;8.88;5.88;;;;;;;14.19;90.67;98676.97;4946751;28;96864;-69
2024/02/10 05:29:36;;;;;;;8.63;5.95;;;;;;;14.23;89.80;98679.25;4950566;28;96962;-69
2024/02/10 05:32:05;;;;;;;6.78;5.28;;;;;;;14.14;90.48;98673.84;4946022;28;99077;-69
2024/02/10 05:34:32;;;;;;;10.43;5.88;;;;;;;14.36;89.48;98684.41;4942531;28;99171;-69
2024/02/10 05:37:00;;;;;;;13.45;6.20;;;;;;;14.18;89.75;98685.91;4946213;28;96809;-69
2024/02/10 05:39:26;;;;;;;7.32;5.60;;;;;;;13.98;90.26;98685.72;4948717;28;96916;-69
2024/02/10 05:41:54;;;;;;;12.07;5.85;;;;;;;13.76;91.71;98683.16;4943362;28;98942;-69
2024/02/10 05:44:22;;;;;;;12.10;6.38;;;;;;;14.14;90.80;98687.13;4945344;28;100766;-70
2024/02/10 05:46:49;;;;;;;10.60;5.35;;;;;;;14.12;91.16;98687.25;4946172;28;97319;-70
2024/02/10 05:49:21;;;;;;;11.43;5.78;;;;;;;14.25;91.39;98687.09;4943633;28;96797;-70
2024/02/10 05:51:48;;;;;;;10.00;5.80;;;;;;;14.08;92.03;98687.63;4947247;28;97589;-68
2024/02/10 05:54:15;;;;;;;15.25;6.07;;;;;;;14.02;92.88;98690.81;4942562;28;97790;-69
2024/02/10 05:56:43;;;;;;;9.60;5.50;;;;;;;14.09;91.80;98676.06;4947335;28;97309;-69
2024/02/10 05:59:09;;;;;;;8.65;5.85;;;;;;;14.03;92.34;98689.84;4944206;28;96871;-69
2024/02/10 06:01:36;;;;;;;10.30;5.80;;;;;;;14.31;91.34;98692.72;4944007;28;97747;-69
2024/02/10 06:04:08;;;;;;;10.00;5.85;;;;;;;14.03;91.55;98692.50;4949267;28;98781;-69
2024/02/10 06:06:36;;;;;;;8.65;6.03;;;;;;;14.06;92.63;98685.09;4944708;28;97947;-69
2024/02/10 06:09:05;;;;;;;12.52;6.10;;;;;;;14.49;90.80;98693.06;4945985;28;97452;-69
2024/02/10 06:11:33;;;;;;;12.35;5.80;;;;;;;14.18;91.30;98697.38;4947590;28;99104;-69
2024/02/10 06:13:59;;;;;;;9.57;5.43;;;;;;;14.22;91.30;98698.81;4949540;28;98807;-69
2024/02/10 06:16:26;;;;;;;10.57;5.68;;;;;;;14.30;91.81;98703.50;4950996;28;99461;-69
2024/02/10 06:18:52;;;;;;;9.27;5.80;;;;;;;14.30;90.97;98706.16;4949808;28;97641;-70
2024/02/10 06:21:19;;;;;;;9.40;5.63;;;;;;;14.16;91.47;98701.13;4949023;28;99146;-69
2024/02/10 06:23:46;;;;;;;6.43;4.90;;;;;;;14.26;91.30;98702.06;4947427;28;98594;-69
2024/02/10 06:26:13;;;;;;;11.25;5.15;;;;;;;14.26;91.61;98708.22;4951398;28;99023;-69
2024/02/10 06:28:40;;;;;;;7.95;5.18;;;;;;;14.20;91.73;98714.03;4949585;28;99088;-69
2024/02/10 06:31:14;;;;;;;9.57;5.13;;;;;;;14.27;91.91;98720.53;4949762;28;99117;-68
2024/02/10 06:33:40;;;;;;;6.78;4.90;;;;;;;14.29;92.18;98720.41;4948465;28;99416;-68
2024/02/10 06:36:07;;;;;;;11.32;5.50;;;;;;;14.46;90.81;98721.69;4951724;28;96827;-68
2024/02/10 06:38:33;;;;;;;7.00;5.22;;;;;;;14.61;90.65;98723.91;4951219;28;97240;-69
2024/02/10 06:41:02;;;;;;;11.20;5.95;;;;;;;14.31;91.84;98729.06;4947675;28;101907;-69
2024/02/10 06:43:28;;;;;;;6.93;5.47;;;;;;;14.31;91.54;98731.72;4951232;28;98399;-68
2024/02/10 06:46:00;;;;;;;11.65;6.13;;;;;;;14.57;90.92;98741.06;4949703;28;96808;-68
2024/02/10 06:48:27;;;;;;;8.27;5.70;;;;;;;14.44;91.03;98739.59;4948398;28;97445;-67
2024/02/10 06:50:54;;;;;;;8.02;5.95;;;;;;;14.41;91.47;98739.84;4949178;28;100276;-67
2024/02/10 06:53:20;;;;;;;6.85;5.47;;;;;;;14.29;91.50;98741.66;4950321;28;99163;-68
2024/02/10 06:55:50;;;;;;;8.00;5.75;;;;;;;14.47;91.21;98744.63;4946620;28;97235;-67
2024/02/10 06:58:19;;;;;;;9.77;6.00;;;;;;;14.23;92.01;98740.34;4947693;28;98156;-65
2024/02/10 07:00:46;;;;;;;9.68;5.63;;;;;;;14.56;90.47;98746.53;4948409;28;99123;-65
2024/02/10 07:03:17;;;;;;;9.15;5.93;;;;;;;14.29;91.82;98745.16;4948021;28;98194;-66
2024/02/10 07:05:45;;;;;;;7.57;5.60;;;;;;;14.47;91.58;98749.94;4946524;28;96872;-68
2024/02/10 07:08:14;;;;;;;8.75;5.95;;;;;;;14.54;90.72;98757.28;4946354;28;98590;-69
2024/02/10 07:10:42;;;;;;;9.68;5.47;;;;;;;14.59;90.61;98756.91;4938876;28;97847;-69
2024/02/10 07:13:09;;;;;;;9.80;6.10;;;;;;;14.75;89.88;98759.97;4947604;28;99325;-69
2024/02/10 07:15:37;;;;;;;6.38;5.30;;;;;;;14.63;90.09;98756.53;4948346;28;96861;-70
2024/02/10 07:18:07;;;;;;;9.40;5.88;;;;;;;14.51;90.56;98768.16;4945318;28;96941;-69
2024/02/10 07:20:34;;;;;;;8.35;5.97;;;;;;;14.45;90.83;98763.34;4946464;28;98884;-68
2024/02/10 07:23:04;;;;;;;10.30;6.32;;;;;;;14.49;91.68;98762.16;4944762;28;97636;-68
2024/02/10 07:25:31;;;;;;;7.13;5.97;;;;;;;14.72;90.71;98770.88;4948746;28;96919;-70
2024/02/10 07:28:00;;;;;;;8.70;6.22;;;;;;;14.59;90.40;98763.06;4940601;28;97669;-70
2024/02/10 07:30:27;;;;;;;8.57;6.22;;;;;;;14.59;91.18;98772.84;4945382;28;99351;-70
2024/02/10 07:32:56;;;;;;;8.57;6.07;;;;;;;14.47;91.04;98777.38;4945566;28;99386;-69
2024/02/10 07:35:23;;;;;;;9.68;6.25;;;;;;;14.49;91.68;98783.41;4951524;28;97149;-68
2024/02/10 07:37:50;;;;;;;10.38;6.35;;;;;;;14.42;91.07;98781.38;4946557;28;96848;-68
2024/02/10 07:40:16;;;;;;;10.50;6.57;;;;;;;14.51;91.33;98788.59;4948533;28;98079;-68
2024/02/10 07:42:42;;;;;;;8.73;7.00;;;;;;;14.49;91.19;98793.19;4946669;28;98868;-68
2024/02/10 07:45:10;;;;;;;7.88;6.13;;;;;;;14.50;91.73;98792.22;4949772;28;97335;-69
2024/02/10 07:47:37;;;;;;;9.43;6.13;;;;;;;14.40;91.34;98800.09;4949108;28;97153;-68
2024/02/10 07:50:06;;;;;;;9.70;6.32;;;;;;;14.32;92.17;98799.84;4949670;28;99476;-70
2024/02/10 07:52:32;;;;;;;8.73;6.72;;;;;;;14.39;92.06;98801.06;4948732;28;97935;-69
2024/02/10 07:54:59;;;;;;;8.65;6.78;;;;;;;14.58;92.00;98803.91;4955131;28;96804;-69
2024/02/10 07:57:26;;;;;;;9.30;6.20;;;;;;;14.71;91.64;98803.72;4945371;28;98054;-68
2024/02/10 07:59:53;;;;;;;7.95;6.53;;;;;;;14.75;90.71;98806.03;4944174;28;98998;-69
2024/02/10 08:02:21;;;;;;;8.60;6.15;;;;;;;14.75;90.89;98813.16;4942357;28;98775;-69
2024/02/10 08:04:49;;;;;;;7.45;6.07;;;;;;;14.70;91.46;98810.84;4948262;28;98496;-70
2024/02/10 08:07:18;;;;;;;8.80;6.07;;;;;;;14.84;90.86;98808.88;4947735;28;97117;-69
2024/02/10 08:09:45;;;;;;;7.80;5.88;;;;;;;14.81;90.75;98817.13;4946269;28;99304;-69
2024/02/10 08:12:15;;;;;;;9.38;6.53;;;;;;;14.80;90.85;98813.59;4943806;28;101157;-69
2024/02/10 08:14:42;;;;;;;7.88;6.18;;;;;;;14.88;90.36;98812.97;4933863;28;97306;-69
2024/02/10 08:17:08;;;;;;;7.50;6.00;;;;;;;14.89;90.57;98815.50;4942124;28;97455;-68
2024/02/10 08:19:36;;;;;;;10.90;6.28;;;;;;;14.88;90.58;98813.81;4943811;28;98857;-69
2024/02/10 08:22:06;;;;;;;8.77;6.32;;;;;;;15.01;89.97;98821.63;4941598;28;99179;-69
2024/02/10 08:24:35;;;;;;;7.97;5.95;;;;;;;14.80;90.87;98826.06;4945546;28;96840;-69
2024/02/10 08:27:01;;;;;;;7.35;5.97;;;;;;;14.89;90.30;98826.16;4943584;28;98537;-68
2024/02/10 08:29:33;;;;;;;7.05;5.82;;;;;;;15.01;90.30;98826.94;4936282;28;99286;-69
2024/02/10 08:32:01;;;;;;;10.70;6.03;;;;;;;15.20;88.93;98821.75;4929790;28;99946;-69
2024/02/10 08:34:30;;;;;;;10.82;6.25;;;;;;;15.16;89.14;98825.66;4931008;28;100298;-69
2024/02/10 08:36:57;;;;;;;7.07;6.25;;;;;;;15.21;88.78;98827.91;4934771;28;100289;-69
2024/02/10 08:39:23;;;;;;;10.20;5.55;;;;;;;15.43;87.32;98827.75;4944857;28;99383;-69
2024/02/10 08:41:51;;;;;;;8.77;5.88;;;;;;;15.21;88.15;98836.75;4946164;28;98078;-69
2024/02/10 08:44:19;;;;;;;7.53;6.18;;;;;;;15.25;88.30;98838.16;4944137;28;97563;-69
2024/02/10 08:46:46;;;;;;;9.70;6.10;;;;;;;15.16;89.24;98830.97;4945788;28;96923;-69
2024/02/10 08:49:14;;;;;;;10.23;6.18;;;;;;;15.43;87.94;98830.41;4943313;28;98860;-69
2024/02/10 08:51:41;;;;;;;7.13;6.07;;;;;;;15.40;88.03;98842.19;4946704;28;99128;-70
2024/02/10 08:54:10;;;;;;;6.28;5.32;;;;;;;15.24;88.15;98847.09;4945657;28;98656;-69
2024/02/10 08:56:41;;;;;;;8.00;5.72;;;;;;;15.31;88.33;98832.31;4945703;28;96890;-69
2024/02/10 08:59:09;;;;;;;10.02;5.75;;;;;;;15.36;87.74;98842.59;4945912;28;99378;-68
2024/02/10 09:01:37;;;;;;;7.82;5.32;;;;;;;15.50;87.64;98835.09;4944879;28;98799;-69
2024/02/10 09:04:04;;;;;;;7.88;6.47;;;;;;;15.37;87.73;98842.44;4935146;28;99169;-69
2024/02/10 09:06:30;;;;;;;10.35;6.43;;;;;;;15.57;87.66;98834.59;4940443;28;96926;-69
2024/02/10 09:08:57;;;;;;;9.93;6.20;;;;;;;15.67;87.26;98839.00;4931139;28;99367;-69
2024/02/10 09:11:25;;;;;;;9.65;6.50;;;;;;;16.19;85.52;98832.63;4944293;28;100375;-70
2024/02/10 09:13:52;;;;;;;11.15;7.32;;;;;;;16.03;85.97;98840.28;4935589;28;98641;-68
2024/02/10 09:16:19;;;;;;;9.07;6.80;;;;;;;15.77;86.42;98845.22;4944220;28;96939;-68
2024/02/10 09:18:46;;;;;;;8.23;6.82;;;;;;;15.51;87.21;98842.09;4939431;28;99236;-69
2024/02/10 09:21:14;;;;;;;8.25;6.70;;;;;;;15.59;86.87;98851.28;4941699;28;100784;-69
2024/02/10 09:23:42;;;;;;;11.10;7.25;;;;;;;15.50;87.52;98843.06;4933873;28;98469;-69
2024/02/10 09:26:11;;;;;;;11.70;7.95;;;;;;;15.35;87.39;98844.41;4944424;28;97503;-69
2024/02/10 09:28:37;;;;;;;9.80;7.60;;;;;;;15.28;88.33;98843.25;4942518;28;97832;-69
2024/02/10 09:31:06;;;;;;;8.25;7.30;;;;;;;15.37;88.34;98847.75;4944117;28;98995;-69
2024/02/10 09:33:34;;;;;;;13.85;8.00;;;;;;;15.50;87.41;98851.06;4944253;28;97315;-68
2024/02/10 09:36:01;;;;;;;11.35;7.63;;;;;;;15.69;86.99;98860.16;4945345;28;96810;-69
2024/02/10 09:38:28;;;;;;;12.90;7.82;;;;;;;15.63;87.64;98855.38;4943257;28;100371;-69
2024/02/10 09:40:57;;;;;;;11.40;7.32;;;;;;;15.89;86.63;98859.28;4945658;28;101371;-69
2024/02/10 09:43:31;;;;;;;13.95;7.60;;;;;;;15.85;86.23;98857.88;4943399;28;96854;-69
2024/02/10 09:45:59;;;;;;;10.55;8.20;;;;;;;16.11;84.93;98869.75;4934584;28;97626;-69
2024/02/10 09:48:26;;;;;;;12.57;7.70;;;;;;;16.23;84.52;98866.00;4946558;28;98951;-69
2024/02/10 09:50:54;;;;;;;8.85;6.75;;;;;;;16.34;83.83;98868.56;4946714;28;101691;-69
2024/02/10 09:53:21;;;;;;;12.13;7.43;;;;;;;16.27;84.24;98870.13;4944983;28;98028;-69
2024/02/10 09:55:52;;;;;;;9.85;7.07;;;;;;;16.18;84.23;98873.56;4944325;28;98705;-69
2024/02/10 09:58:19;;;;;;;8.43;7.38;;;;;;;16.26;84.56;98873.75;4937163;28;98836;-70
2024/02/10 10:00:49;;;;;;;9.25;7.15;;;;;;;16.33;83.99;98877.56;4945101;28;99022;-69
2024/02/10 10:03:16;;;;;;;9.25;7.03;;;;;;;16.32;83.46;98872.38;4944926;28;97097;-69
2024/02/10 10:05:43;;;;;;;12.02;6.80;;;;;;;16.23;84.23;98874.00;4945550;28;98053;-69
2024/02/10 10:08:11;;;;;;;9.05;7.05;;;;;;;16.33;83.94;98874.91;4944732;28;101701;-69
2024/02/10 10:10:37;;;;;;;10.77;7.60;;;;;;;16.39;84.24;98875.31;4946672;28;98079;-69
2024/02/10 10:13:07;;;;;;;11.25;6.88;;;;;;;16.62;82.68;98871.47;4939764;28;98774;-69
2024/02/10 10:15:34;;;;;;;10.57;7.00;;;;;;;16.44;82.81;98870.44;4946130;28;98348;-69
2024/02/10 10:18:00;;;;;;;9.82;6.03;;;;;;;16.42;83.00;98872.38;4944491;28;99499;-69
2024/02/10 10:20:27;;;;;;;;;;;;;;;16.56;82.25;98874.66;4943841;28;96833;-69
2024/02/10 10:22:53;;;;;;;15.90;6.50;;;;;;;16.22;83.34;98882.13;4943106;28;98073;-70
2024/02/10 10:25:21;;;;;;;7.85;6.00;;;;;;;16.39;83.13;98878.84;4943508;28;97164;-68
2024/02/10 10:27:48;;;;;;;9.00;6.18;;;;;;;16.43;83.12;98866.06;4941281;28;98238;-69
2024/02/10 10:30:18;;;;;;;12.90;5.97;;;;;;;16.51;82.84;98879.56;4942758;28;98851;-70
2024/02/10 10:32:52;;;;;;;8.35;6.03;;;;;;;16.51;82.63;98876.91;4931279;28;97563;-68
2024/02/10 10:35:19;;;;;;;10.18;6.72;;;;;;;16.37;83.08;98869.28;4945965;28;96971;-68
2024/02/10 10:37:48;;;;;;;8.20;6.22;;;;;;;16.55;82.60;98867.63;4933050;28;100109;-71
2024/02/10 10:40:15;;;;;;;10.48;6.18;;;;;;;16.66;82.20;98870.25;4945976;28;100040;-69
2024/02/10 10:42:45;;;;;;;8.07;6.05;;;;;;;16.74;81.57;98870.38;4944397;28;97148;-68
2024/02/10 10:45:13;;;;;;;6.63;5.18;;;;;;;16.59;81.38;98866.41;4944340;28;97243;-69
2024/02/10 10:47:46;;;;;;;6.10;5.30;;;;;;;16.57;81.08;98866.53;4944094;28;99229;-69
2024/02/10 10:50:13;;;;;;;7.60;5.18;;;;;;;16.67;81.18;98871.94;4946169;28;98843;-69
2024/02/10 10:52:40;;;;;;;7.05;4.45;;;;;;;16.73;80.90;98863.38;4942569;28;97855;-69
2024/02/10 10:55:10;;;;;;;6.20;5.20;;;;;;;16.69;80.73;98867.28;4947428;28;97182;-69
2024/02/10 10:57:40;;;;;;;8.15;5.00;;;;;;;16.93;79.97;98862.41;4947785;28;98898;-69
2024/02/10 11:00:12;;;;;;;8.25;4.90;;;;;;;17.06;79.52;98862.97;4948997;28;99853;-69
2024/02/10 11:02:40;;;;;;;7.15;5.05;;;;;;;17.31;78.39;98871.38;4947851;28;97247;-69
2024/02/10 11:05:12;;;;;;;7.90;5.45;;;;;;;17.28;78.32;98874.31;4949172;28;97642;-69
2024/02/10 11:07:45;;;;;;;8.75;5.57;;;;;;;17.38;77.91;98872.50;4947117;28;100379;-69
2024/02/10 11:10:11;;;;;;;8.27;4.85;;;;;;;17.10;78.32;98875.03;4945798;28;99107;-70
2024/02/10 11:12:43;;;;;;;18.80;5.22;;;;;;;17.00;79.37;98868.84;4937259;28;98153;-69
2024/02/10 11:15:20;;;;;;;6.65;4.70;;;;;;;16.98;78.52;98864.66;4946311;28;97806;-69
2024/02/10 11:17:56;;;;;;;7.68;5.15;;;;;;;16.80;78.74;98863.66;4948259;28;98986;-70
2024/02/10 11:20:24;;;;;;;6.53;4.13;;;;;;;17.00;78.59;98863.50;4945225;28;98777;-68
2024/02/10 11:22:50;;;;;;;6.22;4.63;;;;;;;17.02;78.48;98860.69;4939726;28;97368;-68
2024/02/10 11:25:18;;;;;;;6.90;5.00;;;;;;;17.19;77.81;98856.50;4935691;28;98485;-68
2024/02/10 11:27:47;;;;;;;6.10;5.07;;;;;;;17.04;77.92;98859.59;4943420;28;97929;-68